Flight Track Log - Related Links

Times and Time Zones

All times are in EDT time to prevent confusion due to time zone crossing. See the UAL3822 flight status page for this flight to view local times or setup timezone preferences in your user account.

Time Position Orientation Groundspeed Altitude Reporting Facility
EDT Latitude Longitude Course Direction KTS MPH feet Rate Location/Type
Fri 07:51:30 AM 40.7167 -74.1333 59° Northeast 180 207 2,600  Level New York TRACON
Fri 07:52:30 AM 40.7833 -74.1000 21° North 220 253 4,600 2,053 Climbing New York TRACON
Fri 07:53:24 AM 40.8333 -74.0667 27° Northeast 237 273 6,500 2,474 Climbing New York TRACON
Fri 07:54:00 AM 40.8248 -73.8338 57° Northeast  Level FlightAware Approximate
Fri 07:54:24 AM 40.8667 -73.9833 62° Northeast 247 284 9,300  Level New York TRACON
Fri 07:55:00 AM 40.8635 -73.7504 59° Northeast  Level FlightAware Approximate
Fri 07:55:24 AM 40.9000 -73.9000 62° Northeast 284 327 10,000  Level New York TRACON
Fri 07:56:00 AM 40.9017 -73.6663 59° Northeast  Level FlightAware Approximate
Fri 07:56:24 AM 40.9500 -73.8167 52° Northeast 303 349 10,000  Level New York TRACON
Fri 07:57:18 AM 41.0000 -73.7333 51° Northeast 300 345 10,000  Level New York TRACON
Fri 07:58:18 AM 41.0667 -73.6667 37° Northeast 367 422 10,000  Level New York TRACON
Fri 07:59:18 AM 41.1333 -73.5833 43° Northeast 302 348 10,000  Level New York TRACON
Fri 08:00:18 AM 41.2000 -73.5167 37° Northeast 310 357 10,000  Level New York TRACON
Fri 08:01:18 AM 41.2667 -73.4500 37° Northeast 308 354 10,000  Level New York TRACON
Fri 08:02:20 AM 41.3358 -73.3661 42° Northeast 308 354 10,000  Level Boston Center
Fri 08:02:51 AM 41.3672 -73.3333 38° Northeast 307 353 10,000  Level Boston Center
Fri 08:03:51 AM 41.4347 -73.2569 40° Northeast 306 352 10,000  Level Boston Center
Fri 08:04:52 AM 41.5017 -73.1858 38° Northeast 306 352 10,000  Level Boston Center
Fri 08:05:47 AM 41.5564 -73.1253 40° Northeast 284 327 10,000 -835 Level Boston Center
Fri 08:06:47 AM 41.6131 -73.0647 39° Northeast 247 284 8,400 -1,785 Descending Boston Center
Fri 08:07:48 AM 41.6653 -73.0069 40° Northeast 247 284 6,400 -1,869 Descending Boston Center
Fri 08:08:49 AM 41.7156 -72.9492 41° Northeast 242 278 4,600 -1,537 Descending Boston Center
Fri 08:09:49 AM 41.7639 -72.8967 39° Northeast 221 254 3,300 -835 Descending Boston Center
Fri 08:10:44 AM 41.8078 -72.8494 39° Northeast 220 253 3,000 -313 Descending Boston Center
Fri 08:11:44 AM 41.8558 -72.7997 38° Northeast 216 249 2,700 -756 Descending Boston Center
Fri 08:12:51 AM 41.8894 -72.7553 45° Northeast 150 173 1,400 -938 Descending Boston Center
Fri 08:13:52 AM 41.9144 -72.7247 42° Northeast 122 140 700 -689 Descending Boston Center

Login

Don't have an account? Register now (free) for customized features, flight alerts, and more!